Pagrindinis puslapis
METAR-TAF:

METAR-TAF

Oro uostai :

Uhanas, Kinija

platuma: 30-37N, ilguma: 114-08E, Aukštis: 23 m

Dabartinis oras

Ataskaita buvo paskelbta 1 valandą ir 10 minutes, ne 14:00 UTC
Vėjas 6 kt iš Rytų/Pietryčių
Temperatūra 10°C
Drėgmė 50%
Slėgis 1030 hPa
Matomumas: 5000 m
migla

METAR: ZHHH 071400Z 11003MPS 5000 HZ NSC 10/00 Q1030 NOSIG

Laikas: 23:10 (15:10 UTC)

Prognozė

Ataskaita buvo paskelbta 8 valandos ir 5 minutes, ne 07:05 UTC
Prognozė galioja nuo 07 metu 12 UTC su 08 metu 12 UTC
Vėjas 6 kt iš Rytų/Pietryčių
Matomumas: 5000 m
migla
Tapsmas
nuo 07 metu 22 UTC su 07 metu 23 UTC
Matomumas: 2400 m
rūkana
Tapsmas
nuo 08 metu 01 UTC su 08 metu 02 UTC
Matomumas: 3000 m
migla

TAF: ZHHH 070705Z 0712/0812 12003MPS 5000 HZ NSC TX14/0807Z TN03/0722Z BECMG 0722/0723 2400 BR BECMG 0801/0802 3000 HZ

Orai ataskaitas ir orų prognozės (METAR, TAF).

turimą stotys yra geltonos ir raudonos taškus žemėlapyje.

Perkelti pele per norėdami pamatyti stoties vardą.

Tada spustelėkite, norėdami matyti oro stebėjimo ir prognozės.

Norėdami pakeisti žemėlapį: spustelėkite ant žalios mygtukų su juodo kryžiaus žemyn,; žalią mygtuką su brūkšneliu, jei norite nutolinti; arba žalių rodyklių gretimoms žemėlapius.


METAR-TAF: